sensor_id;sensor_type;location;lat;lon;timestamp;temperature;humidity
6879;DHT22;3478;51.462;7.338;2023-06-14T00:00:24;19.30;57.80
6879;DHT22;3478;51.462;7.338;2023-06-14T00:05:25;19.30;58.10
6879;DHT22;3478;51.462;7.338;2023-06-14T00:10:30;19.10;58.60
6879;DHT22;3478;51.462;7.338;2023-06-14T00:15:35;19.00;59.50
6879;DHT22;3478;51.462;7.338;2023-06-14T00:20:37;19.00;59.90
6879;DHT22;3478;51.462;7.338;2023-06-14T00:25:40;18.90;60.30
6879;DHT22;3478;51.462;7.338;2023-06-14T00:30:43;18.80;60.70
6879;DHT22;3478;51.462;7.338;2023-06-14T00:35:47;18.60;61.10
6879;DHT22;3478;51.462;7.338;2023-06-14T00:40:49;18.50;61.70
6879;DHT22;3478;51.462;7.338;2023-06-14T00:45:52;18.60;61.60
6879;DHT22;3478;51.462;7.338;2023-06-14T00:50:54;18.60;62.00
6879;DHT22;3478;51.462;7.338;2023-06-14T00:55:57;18.60;62.30
6879;DHT22;3478;51.462;7.338;2023-06-14T01:01:00;18.50;61.90
6879;DHT22;3478;51.462;7.338;2023-06-14T01:06:11;18.40;62.70
6879;DHT22;3478;51.462;7.338;2023-06-14T01:11:22;18.40;64.00
6879;DHT22;3478;51.462;7.338;2023-06-14T01:16:29;18.30;63.70
6879;DHT22;3478;51.462;7.338;2023-06-14T01:21:32;18.20;64.20
6879;DHT22;3478;51.462;7.338;2023-06-14T01:26:43;18.10;64.60
6879;DHT22;3478;51.462;7.338;2023-06-14T01:31:47;18.00;65.30
6879;DHT22;3478;51.462;7.338;2023-06-14T01:36:50;17.90;65.30
6879;DHT22;3478;51.462;7.338;2023-06-14T01:41:53;17.90;65.20
6879;DHT22;3478;51.462;7.338;2023-06-14T01:46:56;17.80;65.50
6879;DHT22;3478;51.462;7.338;2023-06-14T01:51:58;17.70;65.60
6879;DHT22;3478;51.462;7.338;2023-06-14T01:57:02;17.60;66.30
6879;DHT22;3478;51.462;7.338;2023-06-14T02:02:04;17.60;66.40
6879;DHT22;3478;51.462;7.338;2023-06-14T02:07:06;17.50;66.90
6879;DHT22;3478;51.462;7.338;2023-06-14T02:12:10;17.50;67.30
6879;DHT22;3478;51.462;7.338;2023-06-14T02:17:12;17.40;67.70
6879;DHT22;3478;51.462;7.338;2023-06-14T02:22:15;17.30;67.90
6879;DHT22;3478;51.462;7.338;2023-06-14T02:27:18;17.20;68.60
6879;DHT22;3478;51.462;7.338;2023-06-14T02:32:20;17.10;68.80
6879;DHT22;3478;51.462;7.338;2023-06-14T02:37:22;17.10;70.60
6879;DHT22;3478;51.462;7.338;2023-06-14T02:42:26;17.00;70.70
6879;DHT22;3478;51.462;7.338;2023-06-14T02:47:28;16.90;71.20
6879;DHT22;3478;51.462;7.338;2023-06-14T02:52:33;16.90;71.70
6879;DHT22;3478;51.462;7.338;2023-06-14T02:57:37;16.90;71.50
6879;DHT22;3478;51.462;7.338;2023-06-14T03:02:39;16.80;72.30
6879;DHT22;3478;51.462;7.338;2023-06-14T03:07:43;16.70;72.70
6879;DHT22;3478;51.462;7.338;2023-06-14T03:12:47;16.70;73.70
6879;DHT22;3478;51.462;7.338;2023-06-14T03:17:48;16.60;72.90
6879;DHT22;3478;51.462;7.338;2023-06-14T03:22:51;16.60;72.60
6879;DHT22;3478;51.462;7.338;2023-06-14T03:27:56;16.60;72.60
6879;DHT22;3478;51.462;7.338;2023-06-14T03:32:58;16.60;73.70
6879;DHT22;3478;51.462;7.338;2023-06-14T03:38:01;16.50;74.00
6879;DHT22;3478;51.462;7.338;2023-06-14T03:43:05;16.50;75.10
6879;DHT22;3478;51.462;7.338;2023-06-14T03:48:09;16.50;74.90
6879;DHT22;3478;51.462;7.338;2023-06-14T03:53:11;16.50;74.70
6879;DHT22;3478;51.462;7.338;2023-06-14T03:58:15;16.50;75.00
6879;DHT22;3478;51.462;7.338;2023-06-14T04:03:17;16.50;75.20
6879;DHT22;3478;51.462;7.338;2023-06-14T04:08:20;16.50;75.90
6879;DHT22;3478;51.462;7.338;2023-06-14T04:13:24;16.60;74.30
6879;DHT22;3478;51.462;7.338;2023-06-14T04:18:26;16.70;74.50
6879;DHT22;3478;51.462;7.338;2023-06-14T04:23:27;16.70;75.20
6879;DHT22;3478;51.462;7.338;2023-06-14T04:28:32;16.80;76.40
6879;DHT22;3478;51.462;7.338;2023-06-14T04:33:38;16.90;76.90
6879;DHT22;3478;51.462;7.338;2023-06-14T04:38:43;17.00;76.00
6879;DHT22;3478;51.462;7.338;2023-06-14T04:43:48;17.10;75.60
6879;DHT22;3478;51.462;7.338;2023-06-14T04:48:50;17.20;75.30
6879;DHT22;3478;51.462;7.338;2023-06-14T04:53:52;17.30;74.50
6879;DHT22;3478;51.462;7.338;2023-06-14T04:58:58;17.30;73.90
6879;DHT22;3478;51.462;7.338;2023-06-14T05:04:00;17.50;74.10
6879;DHT22;3478;51.462;7.338;2023-06-14T05:09:02;17.50;74.20
6879;DHT22;3478;51.462;7.338;2023-06-14T05:14:06;17.70;73.80
6879;DHT22;3478;51.462;7.338;2023-06-14T05:19:08;17.80;76.10
6879;DHT22;3478;51.462;7.338;2023-06-14T05:24:10;18.00;75.30
6879;DHT22;3478;51.462;7.338;2023-06-14T05:29:14;18.20;74.60
6879;DHT22;3478;51.462;7.338;2023-06-14T05:34:16;18.30;73.40
6879;DHT22;3478;51.462;7.338;2023-06-14T05:39:17;18.40;72.80
6879;DHT22;3478;51.462;7.338;2023-06-14T05:44:21;18.40;72.50
6879;DHT22;3478;51.462;7.338;2023-06-14T05:49:23;18.50;72.90
6879;DHT22;3478;51.462;7.338;2023-06-14T05:54:25;18.60;70.90
6879;DHT22;3478;51.462;7.338;2023-06-14T05:59:28;18.80;70.50
6879;DHT22;3478;51.462;7.338;2023-06-14T06:04:30;19.00;70.40
6879;DHT22;3478;51.462;7.338;2023-06-14T06:09:32;19.20;69.80
6879;DHT22;3478;51.462;7.338;2023-06-14T06:14:36;19.40;70.40
6879;DHT22;3478;51.462;7.338;2023-06-14T06:19:38;19.60;70.20
6879;DHT22;3478;51.462;7.338;2023-06-14T06:24:40;19.50;66.60
6879;DHT22;3478;51.462;7.338;2023-06-14T06:29:43;19.80;69.50
6879;DHT22;3478;51.462;7.338;2023-06-14T06:34:46;19.90;67.30
6879;DHT22;3478;51.462;7.338;2023-06-14T06:39:48;20.20;69.70
6879;DHT22;3478;51.462;7.338;2023-06-14T06:44:51;20.40;67.60
6879;DHT22;3478;51.462;7.338;2023-06-14T06:49:53;20.30;66.10
6879;DHT22;3478;51.462;7.338;2023-06-14T06:54:55;20.20;65.70
6879;DHT22;3478;51.462;7.338;2023-06-14T06:59:59;20.30;65.30
6879;DHT22;3478;51.462;7.338;2023-06-14T07:05:01;20.30;65.00
6879;DHT22;3478;51.462;7.338;2023-06-14T07:10:03;20.40;67.30
6879;DHT22;3478;51.462;7.338;2023-06-14T07:15:08;20.50;65.10
6879;DHT22;3478;51.462;7.338;2023-06-14T07:20:11;20.50;64.50
6879;DHT22;3478;51.462;7.338;2023-06-14T07:25:14;20.30;64.70
6879;DHT22;3478;51.462;7.338;2023-06-14T07:30:17;20.40;67.40
6879;DHT22;3478;51.462;7.338;2023-06-14T07:35:20;20.50;65.10
6879;DHT22;3478;51.462;7.338;2023-06-14T07:40:22;20.60;66.50
6879;DHT22;3478;51.462;7.338;2023-06-14T07:45:25;20.80;65.00
6879;DHT22;3478;51.462;7.338;2023-06-14T07:50:27;20.60;66.00
6879;DHT22;3478;51.462;7.338;2023-06-14T07:55:29;20.60;63.30
6879;DHT22;3478;51.462;7.338;2023-06-14T08:00:32;20.50;66.50
6879;DHT22;3478;51.462;7.338;2023-06-14T08:05:34;20.50;66.10
6879;DHT22;3478;51.462;7.338;2023-06-14T08:10:36;20.70;66.10
6879;DHT22;3478;51.462;7.338;2023-06-14T08:15:40;20.70;61.80
6879;DHT22;3478;51.462;7.338;2023-06-14T08:20:42;20.70;62.20
6879;DHT22;3478;51.462;7.338;2023-06-14T08:25:44;20.90;62.00
6879;DHT22;3478;51.462;7.338;2023-06-14T08:30:48;20.90;61.10
6879;DHT22;3478;51.462;7.338;2023-06-14T08:35:50;21.10;61.90
6879;DHT22;3478;51.462;7.338;2023-06-14T08:40:52;21.20;61.70
6879;DHT22;3478;51.462;7.338;2023-06-14T08:46:02;21.50;61.40
6879;DHT22;3478;51.462;7.338;2023-06-14T08:51:04;21.60;59.00
6879;DHT22;3478;51.462;7.338;2023-06-14T08:56:06;21.70;58.50
6879;DHT22;3478;51.462;7.338;2023-06-14T09:01:15;21.70;58.10
6879;DHT22;3478;51.462;7.338;2023-06-14T09:06:18;21.90;58.50
6879;DHT22;3478;51.462;7.338;2023-06-14T09:11:23;22.40;60.40
6879;DHT22;3478;51.462;7.338;2023-06-14T09:16:28;22.60;57.80
6879;DHT22;3478;51.462;7.338;2023-06-14T09:21:35;22.90;59.10
6879;DHT22;3478;51.462;7.338;2023-06-14T09:26:38;23.20;55.90
6879;DHT22;3478;51.462;7.338;2023-06-14T09:31:43;23.40;56.10
6879;DHT22;3478;51.462;7.338;2023-06-14T09:36:45;24.00;54.60
6879;DHT22;3478;51.462;7.338;2023-06-14T09:41:47;24.30;53.00
6879;DHT22;3478;51.462;7.338;2023-06-14T09:46:50;24.40;53.60
6879;DHT22;3478;51.462;7.338;2023-06-14T09:51:53;24.90;56.70
6879;DHT22;3478;51.462;7.338;2023-06-14T09:56:56;25.00;52.90
6879;DHT22;3478;51.462;7.338;2023-06-14T10:02:00;25.20;54.10
6879;DHT22;3478;51.462;7.338;2023-06-14T10:07:04;25.50;55.60
6879;DHT22;3478;51.462;7.338;2023-06-14T10:12:07;25.50;51.40
6879;DHT22;3478;51.462;7.338;2023-06-14T10:17:20;25.80;55.10
6879;DHT22;3478;51.462;7.338;2023-06-14T10:22:26;25.80;53.70
6879;DHT22;3478;51.462;7.338;2023-06-14T10:27:30;25.90;54.30
6879;DHT22;3478;51.462;7.338;2023-06-14T10:33:05;26.40;53.40
6879;DHT22;3478;51.462;7.338;2023-06-14T10:38:09;26.50;51.20
6879;DHT22;3478;51.462;7.338;2023-06-14T10:43:24;26.60;52.60
6879;DHT22;3478;51.462;7.338;2023-06-14T10:48:31;26.50;51.20
6879;DHT22;3478;51.462;7.338;2023-06-14T10:53:40;26.60;51.10
6879;DHT22;3478;51.462;7.338;2023-06-14T10:58:42;26.60;50.30
6879;DHT22;3478;51.462;7.338;2023-06-14T11:03:51;27.10;52.50
6879;DHT22;3478;51.462;7.338;2023-06-14T11:09:24;27.20;51.90
6879;DHT22;3478;51.462;7.338;2023-06-14T11:14:32;27.70;53.70
6879;DHT22;3478;51.462;7.338;2023-06-14T11:19:36;27.50;51.90
6879;DHT22;3478;51.462;7.338;2023-06-14T11:24:37;27.60;51.00
6879;DHT22;3478;51.462;7.338;2023-06-14T11:29:47;28.10;51.70
6879;DHT22;3478;51.462;7.338;2023-06-14T11:34:52;28.50;49.80
6879;DHT22;3478;51.462;7.338;2023-06-14T11:39:56;28.90;50.50
6879;DHT22;3478;51.462;7.338;2023-06-14T11:44:58;28.90;46.60
6879;DHT22;3478;51.462;7.338;2023-06-14T11:50:02;29.30;48.00
6879;DHT22;3478;51.462;7.338;2023-06-14T11:55:05;29.00;46.90
6879;DHT22;3478;51.462;7.338;2023-06-14T12:00:08;29.50;48.00
6879;DHT22;3478;51.462;7.338;2023-06-14T12:05:14;29.30;46.30
6879;DHT22;3478;51.462;7.338;2023-06-14T12:10:16;30.10;46.30
6879;DHT22;3478;51.462;7.338;2023-06-14T12:15:18;29.70;45.30
6879;DHT22;3478;51.462;7.338;2023-06-14T12:20:22;29.50;45.00
6879;DHT22;3478;51.462;7.338;2023-06-14T12:25:31;30.30;46.40
6879;DHT22;3478;51.462;7.338;2023-06-14T12:30:33;31.10;46.10
6879;DHT22;3478;51.462;7.338;2023-06-14T12:35:37;31.40;45.10
6879;DHT22;3478;51.462;7.338;2023-06-14T12:40:39;31.50;43.30
6879;DHT22;3478;51.462;7.338;2023-06-14T12:45:42;31.70;41.80
6879;DHT22;3478;51.462;7.338;2023-06-14T12:50:46;31.70;43.30
6879;DHT22;3478;51.462;7.338;2023-06-14T12:55:48;31.80;43.50
6879;DHT22;3478;51.462;7.338;2023-06-14T13:00:50;32.10;42.60
6879;DHT22;3478;51.462;7.338;2023-06-14T13:05:53;32.50;39.90
6879;DHT22;3478;51.462;7.338;2023-06-14T13:10:55;33.10;40.90
6879;DHT22;3478;51.462;7.338;2023-06-14T13:15:57;33.20;38.50
6879;DHT22;3478;51.462;7.338;2023-06-14T13:21:01;32.80;40.30
6879;DHT22;3478;51.462;7.338;2023-06-14T13:26:02;33.00;40.10
6879;DHT22;3478;51.462;7.338;2023-06-14T13:31:04;32.90;39.90
6879;DHT22;3478;51.462;7.338;2023-06-14T13:36:08;33.00;40.10
6879;DHT22;3478;51.462;7.338;2023-06-14T13:41:10;32.80;39.90
6879;DHT22;3478;51.462;7.338;2023-06-14T13:46:12;33.10;39.30
6879;DHT22;3478;51.462;7.338;2023-06-14T13:51:16;33.70;39.20
6879;DHT22;3478;51.462;7.338;2023-06-14T13:56:19;33.70;38.90
6879;DHT22;3478;51.462;7.338;2023-06-14T14:01:23;33.80;39.20
6879;DHT22;3478;51.462;7.338;2023-06-14T14:06:27;33.10;37.50
6879;DHT22;3478;51.462;7.338;2023-06-14T14:11:29;33.80;39.10
6879;DHT22;3478;51.462;7.338;2023-06-14T14:16:32;33.60;38.20
6879;DHT22;3478;51.462;7.338;2023-06-14T14:21:37;33.00;37.90
6879;DHT22;3478;51.462;7.338;2023-06-14T14:26:38;32.90;39.10
6879;DHT22;3478;51.462;7.338;2023-06-14T14:31:43;33.00;37.80
6879;DHT22;3478;51.462;7.338;2023-06-14T14:36:46;32.60;37.80
6879;DHT22;3478;51.462;7.338;2023-06-14T14:41:48;32.40;39.40
6879;DHT22;3478;51.462;7.338;2023-06-14T14:46:53;32.60;38.20
6879;DHT22;3478;51.462;7.338;2023-06-14T14:51:56;33.00;38.00
6879;DHT22;3478;51.462;7.338;2023-06-14T14:56:58;33.40;37.10
6879;DHT22;3478;51.462;7.338;2023-06-14T15:02:00;33.60;37.40
6879;DHT22;3478;51.462;7.338;2023-06-14T15:07:03;32.80;38.20
6879;DHT22;3478;51.462;7.338;2023-06-14T15:12:09;32.60;37.30
6879;DHT22;3478;51.462;7.338;2023-06-14T15:17:12;32.30;37.40
6879;DHT22;3478;51.462;7.338;2023-06-14T15:22:15;32.70;37.80
6879;DHT22;3478;51.462;7.338;2023-06-14T15:27:18;32.60;37.90
6879;DHT22;3478;51.462;7.338;2023-06-14T15:32:20;33.00;37.10
6879;DHT22;3478;51.462;7.338;2023-06-14T15:37:23;33.00;37.00
6879;DHT22;3478;51.462;7.338;2023-06-14T15:42:25;32.30;36.20
6879;DHT22;3478;51.462;7.338;2023-06-14T15:47:27;32.60;37.80
6879;DHT22;3478;51.462;7.338;2023-06-14T15:52:31;33.00;37.80
6879;DHT22;3478;51.462;7.338;2023-06-14T15:57:32;32.10;35.50
6879;DHT22;3478;51.462;7.338;2023-06-14T16:02:35;31.90;37.50
6879;DHT22;3478;51.462;7.338;2023-06-14T16:07:38;32.20;37.20
6879;DHT22;3478;51.462;7.338;2023-06-14T16:12:40;32.30;36.50
6879;DHT22;3478;51.462;7.338;2023-06-14T16:17:42;32.30;37.50
6879;DHT22;3478;51.462;7.338;2023-06-14T16:22:45;30.60;37.40
6879;DHT22;3478;51.462;7.338;2023-06-14T16:27:48;31.10;38.40
6879;DHT22;3478;51.462;7.338;2023-06-14T16:32:50;31.20;39.00
6879;DHT22;3478;51.462;7.338;2023-06-14T16:37:54;31.20;38.00
6879;DHT22;3478;51.462;7.338;2023-06-14T16:42:56;31.90;38.00
6879;DHT22;3478;51.462;7.338;2023-06-14T16:47:57;31.40;38.50
6879;DHT22;3478;51.462;7.338;2023-06-14T16:53:01;30.80;38.50
6879;DHT22;3478;51.462;7.338;2023-06-14T16:58:03;30.50;40.10
6879;DHT22;3478;51.462;7.338;2023-06-14T17:03:05;30.20;40.90
6879;DHT22;3478;51.462;7.338;2023-06-14T17:08:08;30.30;41.10
6879;DHT22;3478;51.462;7.338;2023-06-14T17:13:10;30.30;40.20
6879;DHT22;3478;51.462;7.338;2023-06-14T17:18:12;30.20;41.00
6879;DHT22;3478;51.462;7.338;2023-06-14T17:23:16;29.60;40.50
6879;DHT22;3478;51.462;7.338;2023-06-14T17:28:20;29.50;41.40
6879;DHT22;3478;51.462;7.338;2023-06-14T17:33:22;29.30;42.20
6879;DHT22;3478;51.462;7.338;2023-06-14T17:38:25;28.80;42.00
6879;DHT22;3478;51.462;7.338;2023-06-14T17:43:29;28.70;42.60
6879;DHT22;3478;51.462;7.338;2023-06-14T17:48:32;28.40;43.60
6879;DHT22;3478;51.462;7.338;2023-06-14T17:53:38;28.00;44.10
6879;DHT22;3478;51.462;7.338;2023-06-14T17:58:40;27.80;44.20
6879;DHT22;3478;51.462;7.338;2023-06-14T18:03:42;27.30;44.90
6879;DHT22;3478;51.462;7.338;2023-06-14T18:08:46;26.70;45.60
6879;DHT22;3478;51.462;7.338;2023-06-14T18:13:48;26.00;46.70
6879;DHT22;3478;51.462;7.338;2023-06-14T18:18:54;25.40;46.50
6879;DHT22;3478;51.462;7.338;2023-06-14T18:23:57;24.90;48.60
6879;DHT22;3478;51.462;7.338;2023-06-14T18:28:59;24.80;48.30
6879;DHT22;3478;51.462;7.338;2023-06-14T18:34:01;24.40;49.40
6879;DHT22;3478;51.462;7.338;2023-06-14T18:39:05;24.30;49.50
6879;DHT22;3478;51.462;7.338;2023-06-14T18:44:07;24.10;50.10
6879;DHT22;3478;51.462;7.338;2023-06-14T18:49:09;23.90;50.10
6879;DHT22;3478;51.462;7.338;2023-06-14T18:54:12;23.70;50.60
6879;DHT22;3478;51.462;7.338;2023-06-14T18:59:15;23.60;51.10
6879;DHT22;3478;51.462;7.338;2023-06-14T19:04:17;23.50;51.40
6879;DHT22;3478;51.462;7.338;2023-06-14T19:09:20;23.30;51.10
6879;DHT22;3478;51.462;7.338;2023-06-14T19:14:23;23.20;52.40
6879;DHT22;3478;51.462;7.338;2023-06-14T19:19:25;23.10;52.40
6879;DHT22;3478;51.462;7.338;2023-06-14T19:24:37;23.00;52.90
6879;DHT22;3478;51.462;7.338;2023-06-14T19:29:40;22.80;53.10
6879;DHT22;3478;51.462;7.338;2023-06-14T19:34:42;22.70;53.50
6879;DHT22;3478;51.462;7.338;2023-06-14T19:39:50;22.50;53.90
6879;DHT22;3478;51.462;7.338;2023-06-14T19:44:52;22.40;53.70
6879;DHT22;3478;51.462;7.338;2023-06-14T19:49:59;22.20;55.10
6879;DHT22;3478;51.462;7.338;2023-06-14T19:55:03;22.10;54.90
6879;DHT22;3478;51.462;7.338;2023-06-14T20:00:06;22.00;55.10
6879;DHT22;3478;51.462;7.338;2023-06-14T20:05:09;21.90;55.50
6879;DHT22;3478;51.462;7.338;2023-06-14T20:10:12;21.80;55.20
6879;DHT22;3478;51.462;7.338;2023-06-14T20:15:14;21.70;55.80
6879;DHT22;3478;51.462;7.338;2023-06-14T20:20:16;21.60;56.10
6879;DHT22;3478;51.462;7.338;2023-06-14T20:25:19;21.50;56.50
6879;DHT22;3478;51.462;7.338;2023-06-14T20:30:22;21.40;56.80
6879;DHT22;3478;51.462;7.338;2023-06-14T20:35:24;21.20;57.60
6879;DHT22;3478;51.462;7.338;2023-06-14T20:40:27;21.00;57.90
6879;DHT22;3478;51.462;7.338;2023-06-14T20:45:29;20.90;58.40
6879;DHT22;3478;51.462;7.338;2023-06-14T20:50:32;20.80;58.80
6879;DHT22;3478;51.462;7.338;2023-06-14T20:55:35;20.70;59.10
6879;DHT22;3478;51.462;7.338;2023-06-14T21:00:37;20.60;59.40
6879;DHT22;3478;51.462;7.338;2023-06-14T21:05:40;20.50;59.80
6879;DHT22;3478;51.462;7.338;2023-06-14T21:10:43;20.40;60.00
6879;DHT22;3478;51.462;7.338;2023-06-14T21:15:46;20.40;60.40
6879;DHT22;3478;51.462;7.338;2023-06-14T21:20:48;20.40;60.60
6879;DHT22;3478;51.462;7.338;2023-06-14T21:25:56;20.30;61.60
6879;DHT22;3478;51.462;7.338;2023-06-14T21:30:58;20.10;62.30
6879;DHT22;3478;51.462;7.338;2023-06-14T21:36:00;20.10;62.50
6879;DHT22;3478;51.462;7.338;2023-06-14T21:41:04;20.00;62.60
6879;DHT22;3478;51.462;7.338;2023-06-14T21:46:05;19.90;62.40
6879;DHT22;3478;51.462;7.338;2023-06-14T21:51:07;20.00;62.80
6879;DHT22;3478;51.462;7.338;2023-06-14T21:56:11;19.90;63.50
6879;DHT22;3478;51.462;7.338;2023-06-14T22:01:13;19.90;63.80
6879;DHT22;3478;51.462;7.338;2023-06-14T22:06:15;19.80;63.90
6879;DHT22;3478;51.462;7.338;2023-06-14T22:11:18;19.70;64.40
6879;DHT22;3478;51.462;7.338;2023-06-14T22:16:21;19.60;64.70
6879;DHT22;3478;51.462;7.338;2023-06-14T22:21:25;19.50;65.60
6879;DHT22;3478;51.462;7.338;2023-06-14T22:26:30;19.40;65.70
6879;DHT22;3478;51.462;7.338;2023-06-14T22:31:34;19.40;66.40
6879;DHT22;3478;51.462;7.338;2023-06-14T22:36:37;19.40;66.70
6879;DHT22;3478;51.462;7.338;2023-06-14T22:41:42;19.40;67.30
6879;DHT22;3478;51.462;7.338;2023-06-14T22:46:48;19.20;69.00
6879;DHT22;3478;51.462;7.338;2023-06-14T22:51:50;19.20;69.30
6879;DHT22;3478;51.462;7.338;2023-06-14T22:56:57;19.00;70.00
6879;DHT22;3478;51.462;7.338;2023-06-14T23:01:59;18.90;70.60
6879;DHT22;3478;51.462;7.338;2023-06-14T23:07:01;18.80;71.10
6879;DHT22;3478;51.462;7.338;2023-06-14T23:12:06;18.80;71.40
6879;DHT22;3478;51.462;7.338;2023-06-14T23:17:09;18.80;72.20
6879;DHT22;3478;51.462;7.338;2023-06-14T23:22:11;18.80;74.20
6879;DHT22;3478;51.462;7.338;2023-06-14T23:27:16;18.70;75.70
6879;DHT22;3478;51.462;7.338;2023-06-14T23:32:17;18.70;77.30
6879;DHT22;3478;51.462;7.338;2023-06-14T23:37:19;18.60;78.60
6879;DHT22;3478;51.462;7.338;2023-06-14T23:42:23;18.50;79.80
6879;DHT22;3478;51.462;7.338;2023-06-14T23:47:29;18.40;81.50
6879;DHT22;3478;51.462;7.338;2023-06-14T23:52:31;18.40;82.60
6879;DHT22;3478;51.462;7.338;2023-06-14T23:57:35;18.30;86.00
